Time;durP1;ratioP1;P1;durP2;ratioP2;P2;SDS_P1;SDS_P2;PMS_P1;PMS_P2;Temp;Humidity;BMP_temperature;BMP_pressure;BME280_temperature;BME280_humidity;BME280_pressure;Samples;Min_cycle;Max_cycle;Signal;HPM_P1;HPM_P2
2021/03/26 00:02:46;;;;;;;7.63;3.40;;;;;;;6.91;36.88;98925.94;10546423;28;20048;-54
2021/03/26 00:07:47;;;;;;;10.68;4.03;;;;;;;6.90;36.74;98918.22;10547586;28;20048;-51
2021/03/26 00:12:50;;;;;;;9.85;4.00;;;;;;;6.89;37.07;98922.59;10544184;28;20047;-51
2021/03/26 00:17:52;;;;;;;8.90;4.10;;;;;;;6.97;36.80;98923.78;10544164;28;20036;-51
2021/03/26 00:22:53;;;;;;;8.93;3.97;;;;;;;6.97;36.69;98924.59;10544183;28;20060;-53
2021/03/26 00:27:56;;;;;;;8.70;3.70;;;;;;;6.97;36.67;98923.78;10544184;28;20055;-51
2021/03/26 00:32:58;;;;;;;8.48;3.35;;;;;;;6.94;36.70;98924.84;10543966;28;20051;-52
2021/03/26 00:38:00;;;;;;;10.52;4.50;;;;;;;6.91;36.71;98925.94;10543602;28;20044;-51
2021/03/26 00:43:03;;;;;;;10.07;3.88;;;;;;;6.88;36.84;98927.97;10543789;28;20575;-52
2021/03/26 00:48:06;;;;;;;8.80;3.95;;;;;;;6.85;36.82;98930.84;10517901;28;20048;-51
2021/03/26 00:53:11;;;;;;;10.48;4.88;;;;;;;6.79;36.96;98926.94;10501040;28;20056;-51
2021/03/26 00:58:14;;;;;;;10.05;4.50;;;;;;;6.76;37.22;98924.56;10501541;28;20071;-51
2021/03/26 01:03:17;;;;;;;14.80;4.50;;;;;;;6.72;37.26;98931.00;10500071;28;20056;-51
2021/03/26 01:08:20;;;;;;;10.80;4.70;;;;;;;6.73;37.35;98927.44;10500659;28;20052;-52
2021/03/26 01:13:24;;;;;;;9.77;4.63;;;;;;;6.73;37.36;98930.03;10500923;28;20206;-52
2021/03/26 01:18:30;;;;;;;12.35;5.63;;;;;;;6.68;37.39;98934.81;10500614;28;20110;-51
2021/03/26 01:23:33;;;;;;;9.90;4.85;;;;;;;6.68;37.66;98942.63;10498335;28;20432;-51
2021/03/26 01:28:36;;;;;;;12.97;5.37;;;;;;;6.71;37.69;98934.56;10500414;28;20040;-52
2021/03/26 01:33:58;;;;;;;13.65;4.40;;;;;;;6.68;37.68;98940.03;10479500;28;20060;-59
2021/03/26 01:39:05;;;;;;;11.68;5.07;;;;;;;6.73;37.82;98937.06;10503117;28;20045;-51
2021/03/26 01:44:10;;;;;;;9.65;4.72;;;;;;;6.78;37.58;98940.13;10498723;28;20143;-51
2021/03/26 01:49:12;;;;;;;13.93;5.20;;;;;;;6.82;37.24;98931.91;10499585;28;20139;-51
2021/03/26 01:54:18;;;;;;;10.10;4.32;;;;;;;6.84;37.36;98929.19;10500862;28;20056;-55
2021/03/26 01:59:21;;;;;;;19.25;6.13;;;;;;;6.86;37.39;98933.31;10504659;28;20036;-53
2021/03/26 02:04:27;;;;;;;11.57;5.13;;;;;;;6.85;37.46;98928.22;10498963;28;20448;-55
2021/03/26 02:09:36;;;;;;;9.82;5.25;;;;;;;6.86;37.66;98932.47;10498546;28;20473;-51
2021/03/26 02:14:42;;;;;;;9.10;4.43;;;;;;;6.84;37.47;98930.00;10498085;28;20056;-52
2021/03/26 02:19:49;;;;;;;10.60;5.03;;;;;;;6.81;37.70;98942.50;10497799;28;20069;-52
2021/03/26 02:24:54;;;;;;;10.52;4.82;;;;;;;6.76;37.59;98936.81;10498831;28;20052;-51
2021/03/26 02:29:58;;;;;;;11.20;5.43;;;;;;;6.72;37.75;98940.63;10498032;28;20425;-59
2021/03/26 02:35:17;;;;;;;13.65;5.22;;;;;;;6.60;38.10;98948.50;10503579;28;20048;-50
2021/03/26 02:40:26;;;;;;;11.10;5.43;;;;;;;6.52;38.25;98952.69;10506915;28;20094;-52
2021/03/26 02:45:32;;;;;;;11.80;5.78;;;;;;;6.44;38.16;98958.53;10505954;28;20052;-50
2021/03/26 02:50:56;;;;;;;11.13;5.72;;;;;;;6.35;38.49;98956.66;10507062;28;20051;-51
2021/03/26 02:56:21;;;;;;;14.90;5.97;;;;;;;6.31;38.23;98953.47;10508372;28;20044;-51
2021/03/26 03:01:32;;;;;;;15.75;5.88;;;;;;;6.30;38.30;98954.38;10514157;28;20484;-51
2021/03/26 03:06:42;;;;;;;13.23;5.78;;;;;;;6.27;38.41;98951.19;10543508;28;20077;-51
2021/03/26 03:12:30;;;;;;;15.40;5.35;;;;;;;6.30;38.51;98957.00;10496487;28;20395;-51
2021/03/26 03:17:39;;;;;;;12.40;6.38;;;;;;;6.32;38.60;98956.91;10547126;28;20040;-52
2021/03/26 03:22:53;;;;;;;13.15;6.45;;;;;;;6.36;38.60;98950.47;10546781;28;20060;-52
2021/03/26 03:28:10;;;;;;;13.43;5.78;;;;;;;6.43;38.77;98952.47;10546474;28;20043;-54
2021/03/26 03:33:19;;;;;;;11.77;6.05;;;;;;;6.64;39.11;98944.69;10536580;28;20052;-54
2021/03/26 03:38:40;;;;;;;12.85;6.00;;;;;;;7.34;39.00;98953.72;10505239;28;20087;-54
2021/03/26 03:43:51;;;;;;;10.73;5.40;;;;;;;8.28;38.50;98964.03;10505101;28;20044;-55
2021/03/26 03:49:01;;;;;;;13.48;6.38;;;;;;;9.18;37.55;98958.63;10503036;28;20040;-52
2021/03/26 03:54:10;;;;;;;12.07;5.60;;;;;;;9.94;37.00;98957.69;10516272;28;20117;-54
2021/03/26 03:59:20;;;;;;;14.88;6.45;;;;;;;11.24;36.27;98962.69;10552094;28;20054;-54
2021/03/26 04:04:45;;;;;;;16.92;6.63;;;;;;;12.65;34.87;98961.38;10539858;28;20052;-55
2021/03/26 04:09:57;;;;;;;15.20;6.75;;;;;;;13.93;33.50;98969.59;10540669;28;20055;-54
2021/03/26 04:15:05;;;;;;;12.52;6.40;;;;;;;15.04;32.18;98966.69;10542439;28;20105;-54
2021/03/26 04:20:19;;;;;;;13.43;6.65;;;;;;;16.21;30.58;98972.34;10542370;28;20357;-54
2021/03/26 04:25:26;;;;;;;12.30;6.45;;;;;;;17.07;29.49;98977.81;10541953;28;20063;-57
2021/03/26 04:31:04;;;;;;;10.20;6.30;;;;;;;16.37;28.86;98979.28;10497692;28;20093;-56
2021/03/26 04:36:39;;;;;;;11.80;6.78;;;;;;;14.89;29.62;98979.06;10544804;28;20059;-54
2021/03/26 04:42:10;;;;;;;13.02;6.35;;;;;;;13.88;30.52;98979.84;10546344;28;20133;-53
2021/03/26 04:47:21;;;;;;;12.68;6.53;;;;;;;13.29;30.84;98983.56;10550282;28;20103;-54
2021/03/26 04:52:56;;;;;;;12.70;7.03;;;;;;;13.16;30.86;98993.75;10520774;28;20056;-56
2021/03/26 04:58:02;;;;;;;14.50;7.00;;;;;;;13.01;30.81;98990.13;10535111;28;20143;-53
2021/03/26 05:03:30;;;;;;;13.38;7.10;;;;;;;13.09;30.62;98990.13;10497521;28;20086;-55
2021/03/26 05:08:40;;;;;;;12.52;6.70;;;;;;;13.15;30.38;98989.47;10497275;28;20048;-54
2021/03/26 05:14:06;;;;;;;13.15;6.70;;;;;;;13.24;30.55;98992.91;10502377;28;20041;-55
2021/03/26 05:19:19;;;;;;;24.08;8.43;;;;;;;13.22;30.31;99002.84;10502497;28;20041;-54
2021/03/26 05:24:34;;;;;;;17.00;7.60;;;;;;;13.27;30.27;99009.31;10497862;28;20197;-53
2021/03/26 05:29:55;;;;;;;20.45;7.63;;;;;;;13.29;30.27;98996.75;10498637;28;20048;-54
2021/03/26 05:35:07;;;;;;;16.08;7.80;;;;;;;13.32;30.12;99017.53;10497017;28;20407;-56
2021/03/26 05:40:43;;;;;;;15.68;6.75;;;;;;;13.23;30.25;99022.94;10498091;28;20048;-54
2021/03/26 05:46:14;;;;;;;26.40;9.00;;;;;;;13.14;30.12;99030.84;10498617;28;20044;-55
2021/03/26 05:52:06;;;;;;;16.00;7.00;;;;;;;12.98;30.63;99038.75;10496365;28;20064;-54
2021/03/26 05:57:19;;;;;;;17.98;8.18;;;;;;;12.74;30.90;99028.97;10501739;28;20044;-55
2021/03/26 06:02:42;;;;;;;17.52;8.07;;;;;;;12.75;30.89;99040.38;10499737;28;20119;-54
2021/03/26 06:08:43;;;;;;;15.93;7.38;;;;;;;12.78;31.01;99032.13;10499168;28;20141;-53
2021/03/26 06:14:32;;;;;;;14.82;7.85;;;;;;;12.59;31.37;99043.75;10505617;28;20056;-53
2021/03/26 06:20:30;;;;;;;11.90;6.57;;;;;;;12.57;31.25;99043.09;10454923;28;20056;-53
2021/03/26 06:26:24;;;;;;;14.80;7.65;;;;;;;12.67;31.14;99047.25;10504755;28;20079;-53
2021/03/26 06:32:09;;;;;;;13.93;6.70;;;;;;;12.63;31.03;99045.94;10501966;28;20053;-53
2021/03/26 06:37:52;;;;;;;19.35;7.68;;;;;;;12.59;31.10;99044.59;10479287;28;20060;-55
2021/03/26 06:43:11;;;;;;;15.32;8.02;;;;;;;12.91;31.00;99035.13;10504907;28;20056;-54
2021/03/26 06:48:29;;;;;;;14.60;7.03;;;;;;;13.31;30.61;99037.00;10504369;28;20075;-55
2021/03/26 06:53:39;;;;;;;14.52;7.63;;;;;;;13.73;29.99;99032.53;10505182;28;20133;-54
2021/03/26 06:59:25;;;;;;;12.10;7.00;;;;;;;13.94;30.01;99043.38;10508358;28;20062;-53
2021/03/26 07:04:41;;;;;;;14.38;6.68;;;;;;;14.07;29.93;99036.75;10414961;28;20068;-53
2021/03/26 07:10:13;;;;;;;15.80;7.57;;;;;;;15.05;30.23;99023.91;10504861;28;20047;-55
2021/03/26 07:15:19;;;;;;;18.98;8.02;;;;;;;22.58;24.18;99004.78;10517403;28;20044;-54
2021/03/26 07:21:15;;;;;;;21.27;9.27;;;;;;;28.45;19.00;99002.69;10503153;28;20049;-55
2021/03/26 07:26:48;;;;;;;32.05;10.23;;;;;;;29.02;17.85;98995.56;10501437;28;20056;-56
2021/03/26 07:32:06;;;;;;;19.10;9.77;;;;;;;31.07;15.93;99004.00;10489396;28;20066;-56
2021/03/26 07:37:15;;;;;;;15.32;8.15;;;;;;;31.23;15.50;99012.81;10504916;28;20131;-56
2021/03/26 07:42:30;;;;;;;14.60;7.97;;;;;;;33.29;13.78;99018.38;10504783;28;20041;-55
2021/03/26 07:47:44;;;;;;;12.07;8.07;;;;;;;36.66;11.90;99018.16;10505293;28;20469;-57
2021/03/26 07:52:52;;;;;;;14.13;8.55;;;;;;;39.10;9.51;99027.19;10527005;28;20489;-55
2021/03/26 07:58:21;;;;;;;16.05;9.10;;;;;;;40.54;8.71;99025.41;10522030;28;20143;-56
2021/03/26 08:03:42;;;;;;;13.88;8.60;;;;;;;39.84;8.65;99030.22;10503912;28;20186;-56
2021/03/26 08:08:58;;;;;;;13.82;7.55;;;;;;;40.53;8.48;99032.09;10503397;28;20055;-56
2021/03/26 08:14:32;;;;;;;12.20;6.05;;;;;;;38.74;8.67;99036.84;10503010;28;20048;-55
2021/03/26 08:19:48;;;;;;;11.35;5.82;;;;;;;40.00;8.25;99031.16;10501128;28;20060;-55
2021/03/26 08:25:06;;;;;;;9.23;5.93;;;;;;;40.31;7.54;99032.59;10502609;28;20492;-54
2021/03/26 08:30:31;;;;;;;14.48;6.22;;;;;;;42.43;6.47;99032.56;10501588;28;20139;-56
2021/03/26 08:35:44;;;;;;;14.32;6.47;;;;;;;40.63;7.12;99041.84;10501284;28;20040;-57
2021/03/26 08:40:54;;;;;;;12.27;6.50;;;;;;;37.65;8.54;99042.97;10504395;28;20460;-55
2021/03/26 08:46:07;;;;;;;10.93;6.70;;;;;;;35.58;9.12;99036.69;10500166;28;20075;-55
2021/03/26 08:51:27;;;;;;;11.00;7.28;;;;;;;35.59;9.14;99036.34;10501027;28;20487;-55
2021/03/26 08:56:47;;;;;;;11.57;6.70;;;;;;;35.81;9.09;99023.78;10501961;28;20060;-55
2021/03/26 09:02:14;;;;;;;12.15;6.85;;;;;;;39.45;7.24;99026.91;10500049;28;20056;-56
2021/03/26 09:07:28;;;;;;;12.82;7.15;;;;;;;42.38;5.72;99019.03;10502065;28;20102;-57
2021/03/26 09:12:42;;;;;;;11.55;7.32;;;;;;;39.57;6.58;99035.19;10503525;28;20442;-56
2021/03/26 09:17:53;;;;;;;19.58;7.63;;;;;;;34.78;9.22;99042.59;10502181;28;20053;-57
2021/03/26 09:23:30;;;;;;;13.40;8.10;;;;;;;36.48;8.25;99030.97;10511331;28;20496;-56
2021/03/26 09:28:37;;;;;;;12.02;6.45;;;;;;;37.20;8.14;99035.13;10500492;28;20040;-62
2021/03/26 09:33:53;;;;;;;11.38;6.65;;;;;;;38.82;7.04;99038.72;10514596;28;20048;-55
2021/03/26 09:39:06;;;;;;;16.17;7.88;;;;;;;39.33;6.66;99035.94;10505475;28;20046;-56
2021/03/26 09:44:22;;;;;;;17.85;10.68;;;;;;;38.62;7.31;99028.53;10540242;28;20055;-55
2021/03/26 09:49:30;;;;;;;13.35;8.07;;;;;;;39.23;6.91;99039.06;10541992;28;20036;-55
2021/03/26 09:54:39;;;;;;;12.80;7.97;;;;;;;38.38;7.02;99026.38;10542388;28;20096;-55
2021/03/26 09:59:49;;;;;;;14.57;8.93;;;;;;;35.21;8.96;99028.53;10540658;28;20054;-56
2021/03/26 10:05:00;;;;;;;13.65;8.65;;;;;;;31.86;10.51;99020.97;10558609;28;20051;-57
2021/03/26 10:15:32;;;;;;;15.82;8.20;;;;;;;27.51;13.04;99026.66;10541498;28;20059;-55
2021/03/26 10:20:40;;;;;;;13.45;6.85;;;;;;;25.82;14.14;99031.94;10540052;28;20066;-54
2021/03/26 10:25:48;;;;;;;10.45;4.18;;;;;;;24.06;15.58;99029.97;10539137;28;20099;-55
2021/03/26 10:30:52;;;;;;;12.57;6.57;;;;;;;22.95;16.34;99035.00;10539744;28;20040;-55
2021/03/26 10:36:01;;;;;;;10.48;5.68;;;;;;;22.56;16.94;99023.72;10541190;28;20396;-56
2021/03/26 10:41:10;;;;;;;11.98;5.32;;;;;;;21.97;17.36;99033.22;10540169;28;20035;-55
2021/03/26 10:46:15;;;;;;;11.68;5.32;;;;;;;21.62;17.65;99035.63;10540376;28;20048;-58
2021/03/26 10:51:28;;;;;;;10.93;5.85;;;;;;;21.26;18.34;99035.22;10540125;28;20218;-55
2021/03/26 10:56:43;;;;;;;9.40;5.20;;;;;;;20.99;18.63;99039.91;10545071;28;20135;-54
2021/03/26 11:01:49;;;;;;;10.45;4.78;;;;;;;20.72;18.63;99041.06;10548486;28;20040;-54
2021/03/26 11:06:56;;;;;;;10.43;4.50;;;;;;;20.34;19.28;99034.59;10547205;28;20360;-54
2021/03/26 11:12:05;;;;;;;9.27;5.35;;;;;;;19.96;19.74;99031.84;10547249;28;20097;-57
2021/03/26 11:17:26;;;;;;;9.32;4.78;;;;;;;19.82;20.44;99032.88;10564490;28;20052;-55
2021/03/26 11:22:31;;;;;;;16.42;5.32;;;;;;;19.64;20.60;99041.47;10546853;28;20051;-56
2021/03/26 11:27:44;;;;;;;15.48;5.85;;;;;;;19.71;20.22;99032.47;10545508;28;20069;-54
2021/03/26 11:32:50;;;;;;;13.95;6.38;;;;;;;19.66;20.68;99029.59;10545659;28;20115;-56
2021/03/26 11:37:56;;;;;;;15.30;7.25;;;;;;;19.32;20.93;99028.75;10547008;28;20142;-56
2021/03/26 11:43:08;;;;;;;11.32;5.70;;;;;;;18.90;22.06;99029.06;10545965;28;20063;-54
2021/03/26 11:48:16;;;;;;;16.42;6.90;;;;;;;18.97;21.66;99024.59;10544850;28;20039;-54
2021/03/26 11:53:45;;;;;;;16.98;6.18;;;;;;;18.82;21.94;99027.44;10537218;28;20481;-55
2021/03/26 11:59:06;;;;;;;12.73;6.22;;;;;;;18.50;22.64;99028.91;10502014;28;20392;-54
2021/03/26 12:04:12;;;;;;;14.05;6.60;;;;;;;18.29;22.88;99033.31;10502656;28;20052;-60
2021/03/26 12:09:21;;;;;;;12.00;6.65;;;;;;;18.13;23.22;99034.47;10503161;28;20037;-54
2021/03/26 12:14:29;;;;;;;13.63;6.70;;;;;;;18.35;22.87;99029.03;10528400;28;20048;-56
2021/03/26 12:19:34;;;;;;;12.68;6.57;;;;;;;18.41;23.10;99025.56;10506814;28;20049;-55
2021/03/26 12:24:40;;;;;;;15.93;8.07;;;;;;;18.63;22.92;99028.97;10506952;28;20056;-55
2021/03/26 12:29:58;;;;;;;17.35;7.55;;;;;;;18.34;23.34;99025.56;10502504;28;20131;-54
2021/03/26 12:35:13;;;;;;;10.80;6.35;;;;;;;18.11;23.69;99025.84;10502489;28;20056;-54
2021/03/26 12:40:43;;;;;;;17.45;6.82;;;;;;;18.05;23.79;99025.81;10501571;28;20135;-56
2021/03/26 12:45:55;;;;;;;12.30;6.55;;;;;;;17.97;23.92;99024.13;10501135;28;20520;-55
2021/03/26 12:51:07;;;;;;;16.48;6.80;;;;;;;17.87;23.79;99024.47;10501738;28;20052;-54
2021/03/26 12:56:15;;;;;;;16.33;6.93;;;;;;;17.52;24.49;99020.91;10502956;28;20052;-58
2021/03/26 13:01:21;;;;;;;13.95;6.40;;;;;;;17.28;24.40;99021.31;10506202;28;20041;-54
2021/03/26 13:06:27;;;;;;;13.93;6.57;;;;;;;17.28;24.86;99011.50;10500518;28;20117;-54
2021/03/26 13:11:34;;;;;;;12.27;6.45;;;;;;;17.02;24.92;99010.22;10500153;28;20109;-56
2021/03/26 13:16:45;;;;;;;15.63;6.38;;;;;;;16.93;25.07;99014.03;10503636;28;20056;-55
2021/03/26 13:21:54;;;;;;;13.70;6.72;;;;;;;16.96;25.29;99010.16;10508358;28;20080;-54
2021/03/26 13:27:24;;;;;;;12.48;6.55;;;;;;;16.67;25.34;99003.91;10498055;28;20060;-55
2021/03/26 13:32:36;;;;;;;13.73;5.53;;;;;;;16.51;25.64;99002.31;10499097;28;20435;-55
2021/03/26 13:37:41;;;;;;;12.07;6.18;;;;;;;16.19;25.49;98998.22;10500159;28;20041;-54
2021/03/26 13:42:46;;;;;;;13.35;5.82;;;;;;;15.91;26.36;98999.88;10499130;28;20101;-56
2021/03/26 13:47:52;;;;;;;14.20;6.03;;;;;;;15.74;26.26;98993.94;10501568;28;20041;-54
2021/03/26 13:53:12;;;;;;;15.15;6.35;;;;;;;15.57;26.49;99002.00;10500515;28;20087;-55
2021/03/26 13:58:22;;;;;;;15.90;8.18;;;;;;;15.65;26.75;98993.16;10499114;28;20093;-54
2021/03/26 14:03:30;;;;;;;13.57;6.43;;;;;;;15.53;26.56;99002.53;10499215;28;20044;-55
2021/03/26 14:08:38;;;;;;;12.93;6.00;;;;;;;15.46;26.80;98997.16;10499408;28;20055;-57
2021/03/26 14:13:45;;;;;;;16.90;6.80;;;;;;;15.24;26.91;99008.56;10499226;28;20064;-53
2021/03/26 14:18:53;;;;;;;14.93;7.03;;;;;;;14.91;27.76;99003.53;10507322;28;20045;-55
2021/03/26 14:24:04;;;;;;;15.63;7.25;;;;;;;14.74;27.72;99008.06;10502795;28;20209;-56
2021/03/26 14:29:22;;;;;;;12.98;6.47;;;;;;;14.66;27.87;99005.50;10500293;28;20508;-54
2021/03/26 14:34:28;;;;;;;15.18;6.93;;;;;;;14.62;27.95;99005.00;10507519;28;20060;-55
2021/03/26 14:39:33;;;;;;;10.00;5.43;;;;;;;14.41;28.24;99002.09;10503319;28;20076;-53
2021/03/26 14:44:47;;;;;;;14.90;6.72;;;;;;;14.26;28.49;99002.84;10505378;28;20423;-54
2021/03/26 14:49:56;;;;;;;;;;;;;;;14.21;27.51;99002.50;10505186;28;20066;-53
2021/03/26 14:55:05;;;;;;;13.38;6.55;;;;;;;14.15;28.31;99003.19;10504267;28;19924;-55
2021/03/26 15:00:29;;;;;;;17.73;7.10;;;;;;;13.88;28.51;99006.25;10519860;28;20138;-53
2021/03/26 15:05:35;;;;;;;14.13;6.30;;;;;;;13.64;28.38;99010.59;10529847;28;20085;-53
2021/03/26 15:10:40;;;;;;;11.15;4.88;;;;;;;13.44;28.84;99012.75;10544185;28;20044;-53
2021/03/26 15:15:47;;;;;;;10.35;4.32;;;;;;;13.26;28.88;99007.63;10545237;28;20051;-55
2021/03/26 15:21:00;;;;;;;13.57;5.00;;;;;;;13.00;29.70;99012.22;10503775;28;20132;-55
2021/03/26 15:26:08;;;;;;;9.82;4.13;;;;;;;12.86;29.37;99014.50;10504338;28;20057;-55
2021/03/26 15:31:21;;;;;;;12.55;4.28;;;;;;;12.73;29.43;99014.16;10500256;28;20415;-55
2021/03/26 15:36:32;;;;;;;11.63;4.10;;;;;;;12.54;29.87;99022.34;10537001;28;20082;-54
2021/03/26 15:41:48;;;;;;;12.32;4.10;;;;;;;12.42;30.08;99019.16;10526288;28;20048;-53
2021/03/26 15:46:59;;;;;;;8.68;3.72;;;;;;;12.38;29.88;99029.19;10505403;28;20106;-52
2021/03/26 15:52:11;;;;;;;11.18;5.00;;;;;;;12.25;30.17;99036.69;10502625;28;20047;-54
2021/03/26 15:57:29;;;;;;;13.27;4.93;;;;;;;12.16;30.60;99029.75;10507181;28;20102;-55
2021/03/26 16:02:50;;;;;;;12.20;4.65;;;;;;;11.96;30.82;99040.50;10541609;28;20055;-59
2021/03/26 16:08:31;;;;;;;11.32;4.93;;;;;;;11.74;31.53;99038.38;10542991;28;20097;-54
2021/03/26 16:14:00;;;;;;;10.52;4.60;;;;;;;11.43;31.84;99044.06;10522373;28;20056;-52
2021/03/26 16:19:58;;;;;;;10.32;4.15;;;;;;;11.14;32.06;99043.47;10544194;28;20049;-54
2021/03/26 16:25:23;;;;;;;9.32;4.70;;;;;;;10.93;32.04;99051.63;10455803;28;20339;-55
2021/03/26 16:30:32;;;;;;;12.90;5.35;;;;;;;10.76;32.33;99055.91;10531261;28;20499;-52
2021/03/26 16:35:46;;;;;;;10.95;5.00;;;;;;;10.60;32.91;99056.56;10548728;28;20060;-54
2021/03/26 16:41:09;;;;;;;9.73;4.03;;;;;;;10.45;33.19;99063.28;10547462;28;20142;-54
2021/03/26 16:46:27;;;;;;;11.75;5.13;;;;;;;10.27;33.53;99048.28;10543552;28;20131;-53
2021/03/26 16:52:00;;;;;;;9.63;4.13;;;;;;;10.12;34.11;99057.56;10542650;28;20101;-53
2021/03/26 16:57:45;;;;;;;12.68;4.53;;;;;;;10.01;34.03;99066.44;10542949;28;20043;-54
2021/03/26 17:03:03;;;;;;;14.05;5.43;;;;;;;9.91;34.19;99065.63;10542579;28;20050;-52
2021/03/26 17:08:24;;;;;;;14.68;5.43;;;;;;;9.80;34.48;99069.25;10542388;28;20055;-54
2021/03/26 17:14:23;;;;;;;14.00;6.05;;;;;;;9.67;35.19;99080.06;10541739;28;20052;-52
2021/03/26 17:20:02;;;;;;;17.88;6.32;;;;;;;9.54;35.54;99092.63;10542627;28;20113;-52
2021/03/26 17:25:20;;;;;;;12.43;5.70;;;;;;;9.48;35.42;99101.03;10544176;28;20056;-54
2021/03/26 17:30:59;;;;;;;14.02;5.50;;;;;;;9.41;35.65;99102.56;10542077;28;20036;-52
2021/03/26 17:36:28;;;;;;;13.40;5.55;;;;;;;9.34;35.97;99094.44;10541032;28;20100;-53
2021/03/26 17:41:46;;;;;;;13.90;5.95;;;;;;;9.23;36.18;99092.75;10541112;28;20040;-52
2021/03/26 17:46:57;;;;;;;18.15;7.80;;;;;;;9.21;36.46;99093.88;10541552;28;20043;-54
2021/03/26 17:52:20;;;;;;;13.90;6.32;;;;;;;9.12;37.03;99100.75;10540835;28;20051;-51
2021/03/26 17:57:38;;;;;;;13.02;6.25;;;;;;;9.10;36.93;99099.25;10540787;28;20518;-55
2021/03/26 18:03:15;;;;;;;15.90;6.38;;;;;;;9.05;37.57;99101.44;10535989;28;20048;-53
2021/03/26 18:08:30;;;;;;;12.98;5.97;;;;;;;8.96;37.96;99105.72;10548390;28;20044;-54
2021/03/26 18:13:52;;;;;;;12.65;6.22;;;;;;;8.90;38.07;99108.88;10548739;28;20361;-55
2021/03/26 18:19:00;;;;;;;18.73;5.40;;;;;;;9.03;37.87;99121.72;10549343;28;20054;-56
2021/03/26 18:24:22;;;;;;;14.32;5.32;;;;;;;9.26;38.13;99117.88;10548295;28;20499;-52
2021/03/26 18:30:14;;;;;;;12.82;5.72;;;;;;;9.43;38.16;99130.34;10547915;28;20450;-53
2021/03/26 18:35:21;;;;;;;13.43;6.60;;;;;;;9.58;38.18;99122.88;10542015;28;20055;-52
2021/03/26 18:40:29;;;;;;;15.90;7.60;;;;;;;9.69;38.14;99127.16;10553075;28;20044;-52
2021/03/26 18:45:45;;;;;;;13.35;5.93;;;;;;;9.75;38.81;99123.97;10548054;28;20081;-52
2021/03/26 18:51:06;;;;;;;12.88;5.95;;;;;;;9.87;38.86;99127.28;10547597;28;20074;-52
2021/03/26 18:56:24;;;;;;;13.65;6.60;;;;;;;9.94;38.69;99133.59;10536611;28;20511;-54
2021/03/26 19:01:40;;;;;;;13.18;6.82;;;;;;;10.05;38.61;99135.25;10547812;28;20480;-52
2021/03/26 19:06:53;;;;;;;13.07;6.90;;;;;;;10.15;38.28;99134.25;10546923;28;20472;-53
2021/03/26 19:12:01;;;;;;;12.30;6.33;;;;;;;10.27;38.33;99132.34;10547075;28;20101;-52
2021/03/26 19:17:13;;;;;;;13.45;7.40;;;;;;;10.27;38.33;99132.34;10546404;28;20043;-55
2021/03/26 19:22:27;;;;;;;11.95;6.65;;;;;;;10.35;38.83;99136.88;10551225;28;20060;-53
2021/03/26 19:28:22;;;;;;;13.65;6.10;;;;;;;10.34;39.09;99137.84;10546266;28;20468;-55
2021/03/26 19:33:45;;;;;;;13.52;6.97;;;;;;;10.25;39.35;99142.16;10546363;28;20453;-54
2021/03/26 19:38:56;;;;;;;12.40;6.82;;;;;;;10.23;39.58;99144.06;10546172;28;20052;-53
2021/03/26 19:44:06;;;;;;;12.57;6.07;;;;;;;10.26;39.36;99137.72;10547199;28;20043;-52
2021/03/26 19:49:17;;;;;;;15.35;6.43;;;;;;;10.27;39.62;99147.28;10544647;28;20404;-54
2021/03/26 19:54:32;;;;;;;11.02;5.38;;;;;;;10.33;39.71;99138.81;10544835;28;20069;-55
2021/03/26 19:59:51;;;;;;;13.32;6.10;;;;;;;10.24;40.37;99139.66;10545242;28;20055;-53
2021/03/26 20:04:59;;;;;;;11.15;6.55;;;;;;;10.27;40.03;99142.84;10546840;28;20468;-55
2021/03/26 20:10:12;;;;;;;12.10;5.55;;;;;;;10.31;40.26;99138.97;10548557;28;20130;-55
2021/03/26 20:15:20;;;;;;;10.47;5.30;;;;;;;10.29;40.14;99127.78;10542985;28;20040;-53
2021/03/26 20:20:31;;;;;;;14.25;5.85;;;;;;;10.30;40.38;99136.47;10543854;28;20047;-55
2021/03/26 20:25:52;;;;;;;11.00;5.22;;;;;;;10.35;40.42;99131.63;10543864;28;20142;-55
2021/03/26 20:31:03;;;;;;;12.15;6.45;;;;;;;10.30;40.50;99133.84;10542636;28;20048;-54
2021/03/26 20:36:19;;;;;;;14.02;6.35;;;;;;;10.32;40.53;99129.28;10544631;28;20052;-53
2021/03/26 20:41:32;;;;;;;15.77;6.55;;;;;;;10.27;40.78;99129.72;10560136;28;20048;-53
2021/03/26 20:46:40;;;;;;;15.68;6.63;;;;;;;10.24;40.95;99129.13;10543693;28;20401;-53
2021/03/26 20:51:57;;;;;;;11.38;5.60;;;;;;;10.10;41.39;99133.88;10542985;28;20472;-52
2021/03/26 20:57:06;;;;;;;13.32;5.32;;;;;;;10.08;41.40;99137.59;10542376;28;20052;-53
2021/03/26 21:02:19;;;;;;;12.20;5.40;;;;;;;10.09;41.50;99132.19;10542070;28;20131;-54
2021/03/26 21:07:25;;;;;;;11.85;5.40;;;;;;;10.04;41.38;99133.63;10542200;28;20802;-57
2021/03/26 21:12:35;;;;;;;12.85;6.90;;;;;;;10.01;41.42;99133.91;10542443;28;20036;-54
2021/03/26 21:17:41;;;;;;;11.68;5.55;;;;;;;9.92;41.69;99153.94;10542462;28;20080;-53
2021/03/26 21:22:46;;;;;;;19.08;8.52;;;;;;;9.81;41.78;99146.22;10546985;28;20048;-53
2021/03/26 21:28:20;;;;;;;9.73;5.90;;;;;;;9.72;41.85;99142.63;10541502;28;20374;-53
2021/03/26 21:33:33;;;;;;;11.30;5.30;;;;;;;9.52;42.05;99148.84;10498879;28;20059;-53
2021/03/26 21:38:41;;;;;;;13.88;6.45;;;;;;;9.22;42.65;99143.56;10540436;28;20047;-54
2021/03/26 21:43:53;;;;;;;10.43;5.22;;;;;;;9.15;42.78;99155.56;10541198;28;20039;-53
2021/03/26 21:49:28;;;;;;;10.80;5.53;;;;;;;9.18;43.46;99152.66;10540955;28;20130;-52
2021/03/26 21:54:38;;;;;;;12.52;5.85;;;;;;;9.21;43.12;99151.56;10541197;28;20065;-53
2021/03/26 21:59:52;;;;;;;11.65;5.28;;;;;;;9.14;43.27;99151.28;10540419;28;20112;-56
2021/03/26 22:04:59;;;;;;;;;;;;;;;9.01;42.65;99150.69;10540654;28;20055;-52
2021/03/26 22:10:15;;;;;;;12.27;5.65;;;;;;;8.83;43.13;99154.91;10541186;28;19935;-54
2021/03/26 22:15:48;;;;;;;14.60;6.32;;;;;;;8.70;43.36;99153.34;10540811;28;20040;-52
2021/03/26 22:21:10;;;;;;;12.60;5.65;;;;;;;8.66;42.90;99153.75;10525046;28;20060;-53
2021/03/26 22:26:17;;;;;;;13.60;6.40;;;;;;;8.63;43.12;99146.16;10540277;28;20060;-53
2021/03/26 22:31:40;;;;;;;12.45;6.38;;;;;;;8.62;43.28;99145.34;10541401;28;20040;-55
2021/03/26 22:36:48;;;;;;;14.35;6.32;;;;;;;8.61;43.53;99154.13;10541295;28;20062;-56
2021/03/26 22:41:57;;;;;;;11.65;5.93;;;;;;;8.65;43.65;99147.69;10541814;28;20452;-54
2021/03/26 22:47:22;;;;;;;11.57;5.43;;;;;;;8.76;43.83;99142.34;10541804;28;20044;-53
2021/03/26 22:52:32;;;;;;;13.02;6.57;;;;;;;8.92;43.56;99143.63;10545788;28;20051;-56
2021/03/26 22:57:47;;;;;;;10.73;6.45;;;;;;;9.10;43.39;99152.50;10548455;28;20048;-54
2021/03/26 23:02:54;;;;;;;12.02;6.28;;;;;;;9.19;43.39;99149.06;10547382;28;20220;-61
2021/03/26 23:07:59;;;;;;;13.95;6.68;;;;;;;9.30;43.12;99155.16;10549613;28;20480;-53
2021/03/26 23:13:08;;;;;;;11.25;5.90;;;;;;;9.26;43.52;99159.03;10547503;28;20069;-53
2021/03/26 23:18:16;;;;;;;14.77;6.05;;;;;;;9.20;43.67;99161.22;10546814;28;20389;-60
2021/03/26 23:23:23;;;;;;;11.77;6.10;;;;;;;9.23;43.70;99160.94;10546128;28;20052;-53
2021/03/26 23:28:29;;;;;;;12.68;6.45;;;;;;;9.25;43.58;99158.19;10546934;28;20044;-55
2021/03/26 23:33:34;;;;;;;14.60;6.40;;;;;;;9.24;43.62;99161.78;10548409;28;20093;-52
2021/03/26 23:38:40;;;;;;;10.57;5.70;;;;;;;9.25;43.77;99149.50;10546975;28;20097;-54
2021/03/26 23:43:47;;;;;;;12.48;6.68;;;;;;;9.24;43.71;99156.56;10547130;28;20048;-54
2021/03/26 23:48:56;;;;;;;11.30;5.70;;;;;;;9.22;43.94;99158.47;10552174;28;20048;-53
2021/03/26 23:54:01;;;;;;;12.02;5.28;;;;;;;9.23;43.97;99160.94;10545315;28;20101;-57
2021/03/26 23:59:14;;;;;;;13.98;6.15;;;;;;;9.34;43.63;99156.56;10544625;28;20059;-53
